Winooski, Vermont
Current Conditions -  °F | °C
As of 7:54 AM on Saturday 20 Dec 2014 (Local Time) from KBTV Reporting Station
Few Clouds Few Clouds  
Wind Chill: 12°   Ceiling: Unl
Heat Index: 12°   Visibility: 10mi
Dew Point:   Wind: 3mph
Humidity: 80%   Direction: 60°ENE
Pressure: 30.32"   Gusts: NA
Location:  44.49°N, 73.19°W
Report Text: KBTV 201254Z 06003KT 10SM FEW060 FEW100 M11/M14 A3032 RMK AO2 SLP275 VCFG T11111139
Loading
Personal Weather Stations






























Interactive Weather Map New forecast layout! Learn more

10-Day Weather Forecast

Advertisements
Track Severe Weather on mobile